Accueil
METAR-TAF:

METAR-TAF

Aéroports :

Aéroport international d'Exeter

Exeter, Angleterre

latitude: 50-44N, longitude: 003-25W, altitude: 30 m

Observation

Le bulletin a été fait il y a 12 heures et 27 minutes, à 15:50 UTC
Vent 8 kt de sud/sud-est, variant entre est/sud-est et sud
Température 21°C
Humidité 53%
Pression 1027 hPa
Visibilité 10 km ou plus
Quelques nuages à une hauteur de 4000 ft

METAR: EGTE 111550Z 15008KT 120V190 9999 FEW040 21/11 Q1027

Heure: 05:17 (04:17 UTC)

Prévision

Le bulletin a été fait il y a 13 heures et 36 minutes, à 14:41 UTC
Prévision valable du 11 à 15 UTC au 11 à 17 UTC
Vent 4 kt de nord-ouest
Visibilité 10 km ou plus
Quelques nuages à une hauteur de 3500 ft
Probabilité 30%
du 11 à 15 UTC au 11 à 17 UTC
Vent 10 kt de sud/sud-ouest

TAF: EGTE 111441Z 1115/1117 31004KT 9999 FEW035 PROB30 1115/1117 20010KT

Observations et prévisions météorologiques de plus de 4000 aéroports (messages METAR et TAF).

Les stations disponibles sont représentées par des disques jaunes et rouges sur la carte.

Passer la souris dessus pour voir le nom de la station.

Cliquer dessus pour voir les observations et prévisions météorologiques.

Pour changer de carte: cliquez sur les boutons verts avec une croix noire pour zoomer, sur le bouton vert avec un tiret pour effectuer un zoom arrière, ou sur les flèches vertes pour les cartes adjacentes.


METAR-TAF: